Time;durP1;ratioP1;P1;durP2;ratioP2;P2;SDS_P1;SDS_P2;PMS_P1;PMS_P2;Temp;Humidity;BMP_temperature;BMP_pressure;BME280_temperature;BME280_humidity;BME280_pressure;Samples;Min_cycle;Max_cycle;Signal;HPM_P1;HPM_P2
2022/05/09 00:01:57;;;;;;;10.73;3.95;;;10.30;8.00;;;;;;5011037;28;25084;-69
2022/05/09 00:04:23;;;;;;;12.93;4.07;;;10.20;7.30;;;;;;5009388;28;25093;-68
2022/05/09 00:06:49;;;;;;;9.43;4.15;;;10.10;7.30;;;;;;5011338;28;25107;-69
2022/05/09 00:09:16;;;;;;;16.27;4.38;;;10.10;7.50;;;;;;5015396;28;25059;-69
2022/05/09 00:11:42;;;;;;;13.88;4.35;;;10.00;8.00;;;;;;5018402;28;25055;-68
2022/05/09 00:14:08;;;;;;;13.15;4.82;;;10.00;8.90;;;;;;5018886;28;25280;-69
2022/05/09 00:16:34;;;;;;;10.75;4.05;;;9.90;9.50;;;;;;5014007;28;25074;-67
2022/05/09 00:19:05;;;;;;;12.13;4.30;;;9.90;9.30;;;;;;5010605;28;25079;-70
2022/05/09 00:21:33;;;;;;;12.35;4.50;;;9.80;10.20;;;;;;5007707;28;25063;-69
2022/05/09 00:23:59;;;;;;;15.15;4.82;;;9.80;9.60;;;;;;5009691;28;25068;-69
2022/05/09 00:26:30;;;;;;;13.88;4.47;;;9.80;9.70;;;;;;5009767;28;25076;-69
2022/05/09 00:28:55;;;;;;;10.48;3.92;;;9.80;7.60;;;;;;5009310;28;25063;-68
2022/05/09 00:31:21;;;;;;;17.17;4.57;;;9.80;7.60;;;;;;5011224;28;25115;-72
2022/05/09 00:33:46;;;;;;;11.50;4.25;;;9.80;8.20;;;;;;5010599;28;25074;-70
2022/05/09 00:36:12;;;;;;;12.48;4.35;;;9.70;8.20;;;;;;5010047;28;25053;-69
2022/05/09 00:38:37;;;;;;;14.77;4.82;;;9.70;9.30;;;;;;5009016;28;25064;-69
2022/05/09 00:43:48;;;;;;;13.70;3.50;;;9.80;8.10;;;;;;5017204;28;25060;-69
2022/05/09 00:46:13;;;;;;;16.77;4.32;;;9.90;7.00;;;;;;5013802;28;25077;-69
2022/05/09 00:48:39;;;;;;;14.82;4.18;;;9.90;5.40;;;;;;5014722;28;25053;-69
2022/05/09 00:51:08;;;;;;;20.80;4.47;;;9.80;5.40;;;;;;5014846;28;25071;-69
2022/05/09 00:53:36;;;;;;;10.68;3.97;;;9.80;5.90;;;;;;5013253;28;25077;-67
2022/05/09 00:56:06;;;;;;;12.88;4.82;;;9.90;6.00;;;;;;5019638;28;25112;-69
2022/05/09 00:58:54;;;;;;;16.02;3.70;;;9.90;4.50;;;;;;5019326;28;25133;-68
2022/05/09 01:01:21;;;;;;;16.90;4.75;;;9.90;5.30;;;;;;5017573;28;25071;-70
2022/05/09 01:03:50;;;;;;;8.98;3.60;;;9.80;3.70;;;;;;5015763;28;24859;-70
2022/05/09 01:06:16;;;;;;;18.30;4.00;;;9.80;4.20;;;;;;4978749;28;25143;-69
2022/05/09 01:08:42;;;;;;;11.52;4.30;;;9.80;4.20;;;;;;5011692;28;25061;-69
2022/05/09 01:11:11;;;;;;;15.73;4.30;;;9.70;4.50;;;;;;5011239;28;24733;-69
2022/05/09 01:13:43;;;;;;;13.38;3.88;;;9.60;3.90;;;;;;5009533;28;25133;-69
2022/05/09 01:16:09;;;;;;;16.60;4.43;;;9.50;5.90;;;;;;5019968;28;25110;-69
2022/05/09 01:18:36;;;;;;;11.18;4.63;;;9.40;7.10;;;;;;5005632;28;25187;-68
2022/05/09 01:21:27;;;;;;;16.85;5.57;;;9.40;8.50;;;;;;5003627;28;25052;-68
2022/05/09 01:23:53;;;;;;;14.07;4.75;;;9.50;8.40;;;;;;5008257;28;25069;-68
2022/05/09 01:26:18;;;;;;;11.45;3.70;;;9.50;7.50;;;;;;5008840;28;25072;-69
2022/05/09 01:28:44;;;;;;;20.95;5.32;;;9.50;6.20;;;;;;5008045;28;25134;-69
2022/05/09 01:31:14;;;;;;;20.20;5.07;;;9.50;6.40;;;;;;5009189;28;25075;-69
2022/05/09 01:33:43;;;;;;;14.75;4.57;;;9.30;7.10;;;;;;5009454;28;25075;-68
2022/05/09 01:36:14;;;;;;;12.88;4.28;;;9.30;7.90;;;;;;5009061;28;25071;-69
2022/05/09 01:38:42;;;;;;;12.60;4.85;;;9.30;7.70;;;;;;5009888;28;25068;-70
2022/05/09 01:41:07;;;;;;;19.05;5.15;;;9.30;8.20;;;;;;5009392;28;25067;-70
2022/05/09 01:43:38;;;;;;;15.55;4.72;;;9.30;7.70;;;;;;5008046;28;25135;-69
2022/05/09 01:46:07;;;;;;;14.40;4.53;;;9.30;8.20;;;;;;5009183;28;25060;-68
2022/05/09 01:51:18;;;;;;;16.25;4.82;;;9.20;8.30;;;;;;5006971;28;25064;-69
2022/05/09 01:53:52;;;;;;;12.88;3.97;;;9.30;8.00;;;;;;5005528;28;25154;-68
2022/05/09 01:56:23;;;;;;;15.80;5.07;;;9.10;7.90;;;;;;5007369;28;25082;-68
2022/05/09 01:58:49;;;;;;;19.00;5.03;;;9.10;10.90;;;;;;5007021;28;25056;-69
2022/05/09 02:01:16;;;;;;;12.77;4.38;;;9.10;11.90;;;;;;5009192;28;25075;-68
2022/05/09 02:03:44;;;;;;;18.15;4.75;;;9.10;11.80;;;;;;5009002;28;25136;-69
2022/05/09 02:06:10;;;;;;;14.18;5.07;;;9.00;11.90;;;;;;5010728;28;25069;-68
2022/05/09 02:08:36;;;;;;;14.27;4.72;;;8.90;13.30;;;;;;5011745;28;25166;-68
2022/05/09 02:11:02;;;;;;;12.15;4.72;;;9.00;12.90;;;;;;5006913;28;25064;-68
2022/05/09 02:13:28;;;;;;;18.20;6.13;;;9.00;12.00;;;;;;5008020;28;25067;-69
2022/05/09 02:15:53;;;;;;;20.27;7.35;;;9.00;11.70;;;;;;5006015;28;25050;-68
2022/05/09 02:18:19;;;;;;;23.15;15.40;;;9.00;11.70;;;;;;5004051;28;25103;-68
2022/05/09 02:20:46;;;;;;;26.30;15.75;;;8.90;11.90;;;;;;5006715;28;25122;-70
2022/05/09 02:23:13;;;;;;;30.08;22.30;;;9.00;13.00;;;;;;5006816;28;25083;-68
2022/05/09 02:25:39;;;;;;;30.75;22.42;;;9.00;12.10;;;;;;5007002;28;25051;-68
2022/05/09 02:28:07;;;;;;;25.75;13.88;;;9.00;11.40;;;;;;5006515;28;25059;-68
2022/05/09 02:30:34;;;;;;;23.33;11.40;;;9.00;10.70;;;;;;5006764;28;25064;-67
2022/05/09 02:32:59;;;;;;;19.05;6.70;;;8.90;11.30;;;;;;5005599;28;25053;-67
2022/05/09 02:35:25;;;;;;;17.85;5.30;;;8.90;12.10;;;;;;5012531;28;25084;-68
2022/05/09 02:37:54;;;;;;;17.52;5.28;;;8.80;12.00;;;;;;5020296;28;25146;-68
2022/05/09 02:40:21;;;;;;;11.32;5.05;;;8.80;12.80;;;;;;5015569;28;25087;-68
2022/05/09 02:42:46;;;;;;;17.80;6.10;;;8.90;12.40;;;;;;5007192;28;25153;-69
2022/05/09 02:45:12;;;;;;;11.43;4.68;;;8.90;11.40;;;;;;5007700;28;25105;-69
2022/05/09 02:47:40;;;;;;;22.85;4.80;;;8.70;12.50;;;;;;5003516;28;25135;-66
2022/05/09 02:50:07;;;;;;;17.90;5.07;;;8.70;14.10;;;;;;5007798;28;25075;-68
2022/05/09 02:52:32;;;;;;;12.77;4.40;;;8.70;13.60;;;;;;5006686;28;25076;-68
2022/05/09 02:54:58;;;;;;;18.77;5.75;;;8.80;14.60;;;;;;5006842;28;25072;-68
2022/05/09 02:57:24;;;;;;;16.15;5.43;;;8.80;14.40;;;;;;5007171;28;25064;-67
2022/05/09 02:59:49;;;;;;;14.95;5.80;;;8.70;13.50;;;;;;5006932;28;25154;-68
2022/05/09 03:02:15;;;;;;;18.27;8.13;;;8.70;14.50;;;;;;5020732;28;25061;-68
2022/05/09 03:04:41;;;;;;;25.95;11.35;;;8.70;16.00;;;;;;5009267;28;25165;-68
2022/05/09 03:07:08;;;;;;;20.95;11.48;;;8.60;16.00;;;;;;5009004;28;25119;-69
2022/05/09 03:09:33;;;;;;;24.38;15.07;;;8.60;17.20;;;;;;5009556;28;25092;-69
2022/05/09 03:11:59;;;;;;;28.13;19.60;;;8.60;16.70;;;;;;5007780;28;25131;-68
2022/05/09 03:14:24;;;;;;;26.75;19.58;;;8.70;16.50;;;;;;5006562;28;25167;-69
2022/05/09 03:16:50;;;;;;;30.75;20.35;;;8.70;16.10;;;;;;5006774;28;25053;-70
2022/05/09 03:19:16;;;;;;;27.90;19.23;;;8.70;15.30;;;;;;5007337;28;25134;-68
2022/05/09 03:21:41;;;;;;;29.08;18.58;;;8.70;15.30;;;;;;5007512;28;25056;-68
2022/05/09 03:24:07;;;;;;;29.50;24.35;;;8.60;16.80;;;;;;5008137;28;25136;-70
2022/05/09 03:26:33;;;;;;;38.67;26.85;;;8.60;17.30;;;;;;5006292;28;25056;-69
2022/05/09 03:28:59;;;;;;;41.10;33.05;;;8.70;16.50;;;;;;5008454;28;25084;-68
2022/05/09 03:31:24;;;;;;;31.58;20.33;;;8.70;16.40;;;;;;5006940;28;25091;-69
2022/05/09 03:33:50;;;;;;;43.80;26.98;;;8.70;17.10;;;;;;5007131;28;25122;-68
2022/05/09 03:36:15;;;;;;;29.50;19.77;;;8.70;17.30;;;;;;5009995;28;25142;-70
2022/05/09 03:38:41;;;;;;;23.73;14.35;;;8.60;16.80;;;;;;5009270;28;25095;-69
2022/05/09 03:41:07;;;;;;;20.67;10.27;;;8.60;19.90;;;;;;5012490;28;25067;-69
2022/05/09 03:43:32;;;;;;;26.67;10.43;;;8.50;20.10;;;;;;5028925;28;25158;-69
2022/05/09 03:45:58;;;;;;;21.38;8.77;;;8.50;20.50;;;;;;5030174;28;25083;-68
2022/05/09 03:48:24;;;;;;;28.00;7.88;;;8.40;22.80;;;;;;5029589;28;25057;-69
2022/05/09 03:50:50;;;;;;;16.35;8.13;;;8.40;23.30;;;;;;5029901;28;25052;-69
2022/05/09 03:53:15;;;;;;;16.35;8.68;;;8.40;23.70;;;;;;5019403;28;25112;-67
2022/05/09 03:55:41;;;;;;;16.20;7.15;;;8.40;25.50;;;;;;5006178;28;25061;-69
2022/05/09 03:58:07;;;;;;;17.02;7.85;;;8.40;26.10;;;;;;5006049;28;25164;-70
2022/05/09 04:00:33;;;;;;;19.00;7.55;;;8.40;25.90;;;;;;5005063;28;25174;-68
2022/05/09 04:03:00;;;;;;;17.52;7.75;;;8.40;26.20;;;;;;5005116;28;25127;-70
2022/05/09 04:05:30;;;;;;;20.35;7.65;;;8.40;25.70;;;;;;5004819;28;25163;-68
2022/05/09 04:07:57;;;;;;;16.42;7.00;;;8.50;26.40;;;;;;5007010;28;25087;-70
2022/05/09 04:10:30;;;;;;;18.63;7.80;;;8.50;25.60;;;;;;5005144;28;25143;-69
2022/05/09 04:12:57;;;;;;;21.48;9.05;;;8.50;23.50;;;;;;5003627;28;25095;-69
2022/05/09 04:18:07;;;;;;;18.00;6.90;;;8.50;26.00;;;;;;5000939;28;25055;-68
2022/05/09 04:20:33;;;;;;;18.60;6.55;;;8.50;25.10;;;;;;5006083;28;25112;-69
2022/05/09 04:23:00;;;;;;;17.63;6.18;;;8.50;25.80;;;;;;5005546;28;25113;-68
2022/05/09 04:25:27;;;;;;;15.70;6.20;;;8.40;26.10;;;;;;5002643;28;25061;-68
2022/05/09 04:27:54;;;;;;;20.13;6.55;;;8.40;28.30;;;;;;5001646;28;25064;-69
2022/05/09 04:30:19;;;;;;;15.60;5.82;;;8.40;29.00;;;;;;5008116;28;25076;-69
2022/05/09 04:32:45;;;;;;;17.10;6.07;;;8.40;29.40;;;;;;5007973;28;25074;-69
2022/05/09 04:35:17;;;;;;;15.07;5.63;;;8.40;31.90;;;;;;5010229;28;25074;-69
2022/05/09 04:37:47;;;;;;;18.95;6.15;;;8.50;32.20;;;;;;5009221;28;25070;-67
2022/05/09 04:40:24;;;;;;;14.75;5.35;;;8.50;30.60;;;;;;5006791;28;25174;-68
2022/05/09 04:42:51;;;;;;;15.50;5.32;;;8.60;30.20;;;;;;5009232;28;25087;-69
2022/05/09 04:45:17;;;;;;;14.10;5.22;;;8.60;30.10;;;;;;5008423;28;25145;-70
2022/05/09 04:47:45;;;;;;;16.08;6.20;;;8.70;28.80;;;;;;5007317;28;25092;-70
2022/05/09 04:50:14;;;;;;;18.00;5.32;;;8.80;27.40;;;;;;5009884;28;25089;-68
2022/05/09 04:52:40;;;;;;;25.63;6.53;;;8.80;29.30;;;;;;5012341;28;25083;-70
2022/05/09 04:55:06;;;;;;;12.15;5.50;;;8.90;27.70;;;;;;5019885;28;25130;-71
2022/05/09 04:57:33;;;;;;;14.50;5.70;;;8.90;25.60;;;;;;5013556;28;25053;-69
2022/05/09 04:59:59;;;;;;;16.73;5.25;;;8.90;26.00;;;;;;5009125;28;25068;-71
2022/05/09 05:02:25;;;;;;;13.93;5.22;;;8.90;26.30;;;;;;5005577;28;25077;-70
2022/05/09 05:04:50;;;;;;;15.98;5.82;;;9.00;27.90;;;;;;5008207;28;25059;-71
2022/05/09 05:07:16;;;;;;;16.90;5.72;;;8.90;29.10;;;;;;5010030;28;25073;-68
2022/05/09 05:09:41;;;;;;;19.80;5.60;;;8.90;33.00;;;;;;5007415;28;25105;-69
2022/05/09 05:12:07;;;;;;;16.63;5.32;;;9.00;34.70;;;;;;5008911;28;25136;-69
2022/05/09 05:14:33;;;;;;;19.13;6.90;;;9.10;34.30;;;;;;5007429;28;25164;-70
2022/05/09 05:17:01;;;;;;;16.75;5.95;;;9.10;30.60;;;;;;5005435;28;25109;-70
2022/05/09 05:19:34;;;;;;;24.05;6.57;;;9.10;31.30;;;;;;5004461;28;25080;-69
2022/05/09 05:22:01;;;;;;;15.40;5.85;;;9.20;29.90;;;;;;5006637;28;25052;-68
2022/05/09 05:24:27;;;;;;;19.92;6.43;;;9.30;30.70;;;;;;5006602;28;25071;-70
2022/05/09 05:26:54;;;;;;;21.85;6.72;;;9.50;30.80;;;;;;5022131;28;25074;-69
2022/05/09 05:29:21;;;;;;;14.00;5.90;;;9.50;28.40;;;;;;5008133;28;25044;-68
2022/05/09 05:31:46;;;;;;;18.08;6.18;;;9.60;28.60;;;;;;5007792;28;25078;-69
2022/05/09 05:34:12;;;;;;;19.35;6.50;;;9.50;27.20;;;;;;5004799;28;25105;-68
2022/05/09 05:36:37;;;;;;;17.85;6.15;;;9.60;27.60;;;;;;5004806;28;25145;-71
2022/05/09 05:39:03;;;;;;;14.30;5.60;;;9.70;26.80;;;;;;5005250;28;25125;-70
2022/05/09 05:41:31;;;;;;;14.45;5.63;;;9.70;24.80;;;;;;5005234;28;25080;-70
2022/05/09 05:43:57;;;;;;;14.75;5.45;;;9.90;24.50;;;;;;5003979;28;25067;-68
2022/05/09 05:46:22;;;;;;;18.40;5.93;;;10.20;23.60;;;;;;5006506;28;25148;-68
2022/05/09 05:48:48;;;;;;;16.73;5.60;;;10.30;19.40;;;;;;5005371;28;25074;-69
2022/05/09 05:51:14;;;;;;;19.17;5.55;;;10.40;17.50;;;;;;5007153;28;25061;-70
2022/05/09 05:53:41;;;;;;;15.15;6.10;;;10.50;16.50;;;;;;5007370;28;25070;-69
2022/05/09 05:56:06;;;;;;;16.25;5.72;;;10.60;14.20;;;;;;5028340;28;25049;-70
2022/05/09 05:58:32;;;;;;;20.23;5.78;;;10.60;12.40;;;;;;5030622;28;25185;-70
2022/05/09 06:00:58;;;;;;;14.75;6.40;;;10.70;9.80;;;;;;5022423;28;25113;-71
2022/05/09 06:03:23;;;;;;;18.90;6.50;;;10.70;5.90;;;;;;5015079;28;25160;-71
2022/05/09 06:05:49;;;;;;;16.40;6.25;;;10.90;5.40;;;;;;5008163;28;25145;-70
2022/05/09 06:08:16;;;;;;;19.52;5.88;;;11.00;4.80;;;;;;5007340;28;25077;-69
2022/05/09 06:10:42;;;;;;;12.27;5.28;;;11.20;2.00;;;;;;5006313;28;25150;-69
2022/05/09 06:13:08;;;;;;;21.48;6.43;;;11.30;1.00;;;;;;5007876;28;25066;-70
2022/05/09 06:15:34;;;;;;;13.85;5.82;;;11.50;1.60;;;;;;5008223;28;25076;-71
2022/05/09 06:18:08;;;;;;;28.20;6.78;;;11.70;1.00;;;;;;5008036;28;26190;-71
2022/05/09 06:20:36;;;;;;;16.95;6.65;;;11.90;1.00;;;;;;5009176;28;25055;-70
2022/05/09 06:23:03;;;;;;;18.95;5.60;;;12.20;1.00;;;;;;5010573;28;25099;-69
2022/05/09 06:25:30;;;;;;;18.33;5.90;;;12.30;1.00;;;;;;5009657;28;25101;-72
2022/05/09 06:27:58;;;;;;;14.27;5.25;;;12.40;1.00;;;;;;5009693;28;25050;-71
2022/05/09 06:30:24;;;;;;;17.17;5.60;;;12.60;1.00;;;;;;5008112;28;25051;-71
2022/05/09 06:32:50;;;;;;;14.93;5.20;;;12.80;1.00;;;;;;5012261;28;25064;-70
2022/05/09 06:35:20;;;;;;;17.83;5.88;;;12.80;1.00;;;;;;5016493;28;25089;-71
2022/05/09 06:37:47;;;;;;;17.15;6.20;;;13.10;1.00;;;;;;5016937;28;25130;-70
2022/05/09 06:40:13;;;;;;;16.15;5.38;;;13.20;1.00;;;;;;5022478;28;25079;-70
2022/05/09 06:42:39;;;;;;;16.38;5.85;;;13.40;1.00;;;;;;5023609;28;25140;-71
2022/05/09 06:45:06;;;;;;;14.25;5.18;;;13.60;1.00;;;;;;5018873;28;25056;-73
2022/05/09 06:47:32;;;;;;;15.52;5.57;;;13.70;1.00;;;;;;5009919;28;25070;-71
2022/05/09 06:49:59;;;;;;;19.35;6.15;;;13.70;1.00;;;;;;5011901;28;25138;-71
2022/05/09 06:52:25;;;;;;;16.65;5.53;;;13.60;1.00;;;;;;5014408;28;25095;-74
2022/05/09 06:54:51;;;;;;;15.77;6.50;;;13.60;1.00;;;;;;5019638;28;25086;-71
2022/05/09 06:57:16;;;;;;;16.73;5.95;;;13.80;1.00;;;;;;5010556;28;25045;-71
2022/05/09 06:59:42;;;;;;;16.75;6.85;;;13.90;1.00;;;;;;5009843;28;25183;-72
2022/05/09 07:02:12;;;;;;;13.25;5.35;;;14.00;1.00;;;;;;5008306;28;25066;-73
2022/05/09 07:04:38;;;;;;;16.98;5.85;;;14.20;1.00;;;;;;5008414;28;25062;-73
2022/05/09 07:07:04;;;;;;;13.85;5.75;;;14.40;1.00;;;;;;5009172;28;25078;-73
2022/05/09 07:09:31;;;;;;;14.15;5.43;;;14.50;1.00;;;;;;5011064;28;25076;-75
2022/05/09 07:11:56;;;;;;;19.67;6.40;;;14.80;1.00;;;;;;5030434;28;25072;-72
2022/05/09 07:14:22;;;;;;;16.13;5.80;;;15.00;1.00;;;;;;5030550;28;25088;-75
2022/05/09 07:16:47;;;;;;;17.95;4.85;;;15.20;1.00;;;;;;5034886;28;25120;-73
2022/05/09 07:19:14;;;;;;;13.63;5.43;;;15.50;1.00;;;;;;5024329;28;25083;-74
2022/05/09 07:21:39;;;;;;;17.33;5.70;;;15.60;1.00;;;;;;5019959;28;25064;-72
2022/05/09 07:24:06;;;;;;;21.10;6.13;;;15.90;1.00;;;;;;5009425;28;25084;-72
2022/05/09 07:26:33;;;;;;;14.52;5.40;;;15.90;1.00;;;;;;5010996;28;25061;-72
2022/05/09 07:28:59;;;;;;;14.48;5.32;;;15.90;1.00;;;;;;5010985;28;25074;-71
2022/05/09 07:31:25;;;;;;;19.35;5.60;;;16.60;1.00;;;;;;5010521;28;25107;-71
2022/05/09 07:33:51;;;;;;;18.63;6.25;;;16.90;1.00;;;;;;5009686;28;25121;-71
2022/05/09 07:36:17;;;;;;;16.48;5.07;;;16.90;1.00;;;;;;5009058;28;25065;-72
2022/05/09 07:38:43;;;;;;;17.65;5.75;;;16.90;1.00;;;;;;5007143;28;25051;-71
2022/05/09 07:41:09;;;;;;;14.15;6.20;;;17.20;1.00;;;;;;5009467;28;25123;-72
2022/05/09 07:43:34;;;;;;;18.55;5.63;;;17.40;1.00;;;;;;5008005;28;25163;-71
2022/05/09 07:46:00;;;;;;;14.57;5.85;;;17.60;1.00;;;;;;5009784;28;25182;-72
2022/05/09 07:48:27;;;;;;;21.15;6.53;;;17.60;1.00;;;;;;5007553;28;25158;-71
2022/05/09 07:50:55;;;;;;;13.25;5.07;;;17.40;1.00;;;;;;5004396;28;25162;-72
2022/05/09 07:53:24;;;;;;;17.75;6.47;;;17.10;1.00;;;;;;5003834;28;25084;-72
2022/05/09 07:55:49;;;;;;;20.33;5.50;;;17.20;1.00;;;;;;5004448;28;25057;-74
2022/05/09 07:58:15;;;;;;;16.45;6.25;;;17.50;1.00;;;;;;5005487;28;25077;-72
2022/05/09 08:00:43;;;;;;;18.80;6.32;;;17.50;1.00;;;;;;5007510;28;25159;-72
2022/05/09 08:03:14;;;;;;;16.80;5.93;;;17.10;1.00;;;;;;5004330;28;25062;-71
2022/05/09 08:05:40;;;;;;;13.68;6.45;;;17.00;1.00;;;;;;5003733;28;25125;-72
2022/05/09 08:08:06;;;;;;;17.27;6.50;;;17.20;1.00;;;;;;5006509;28;25064;-72
2022/05/09 08:10:32;;;;;;;18.60;5.03;;;17.40;1.00;;;;;;5006877;28;25066;-72
2022/05/09 08:12:59;;;;;;;19.50;6.78;;;18.00;1.00;;;;;;5008323;28;25073;-71
2022/05/09 08:15:26;;;;;;;16.88;6.22;;;17.90;1.00;;;;;;5007105;28;25065;-72
2022/05/09 08:17:52;;;;;;;14.25;7.13;;;18.00;1.00;;;;;;5005974;28;25054;-74
2022/05/09 08:20:18;;;;;;;12.48;5.30;;;18.00;1.00;;;;;;5008075;28;25103;-72
2022/05/09 08:22:45;;;;;;;14.27;5.60;;;18.00;1.00;;;;;;5004672;28;25087;-72
2022/05/09 08:25:13;;;;;;;22.40;7.20;;;18.50;1.00;;;;;;5002537;28;25071;-73
2022/05/09 08:27:40;;;;;;;18.00;6.53;;;18.40;1.00;;;;;;5007542;28;25071;-70
2022/05/09 08:30:08;;;;;;;15.25;5.65;;;18.20;1.00;;;;;;5008265;28;25127;-72
2022/05/09 08:32:36;;;;;;;17.92;5.07;;;18.60;1.00;;;;;;5016825;28;25070;-73
2022/05/09 08:35:03;;;;;;;15.93;5.80;;;18.80;1.00;;;;;;5019346;28;25061;-72
2022/05/09 08:37:29;;;;;;;13.60;5.40;;;18.20;1.00;;;;;;5010442;28;25076;-71
2022/05/09 08:39:54;;;;;;;14.15;5.55;;;18.00;1.00;;;;;;5006835;28;25080;-72
2022/05/09 08:42:33;;;;;;;12.90;5.82;;;18.20;1.00;;;;;;5007416;28;25075;-71
2022/05/09 08:45:33;;;;;;;13.02;5.32;;;18.70;1.00;;;;;;5007248;28;25086;-73
2022/05/09 08:48:22;;;;;;;13.82;4.85;;;19.20;1.00;;;;;;5003570;28;25097;-72
2022/05/09 08:51:14;;;;;;;19.90;4.45;;;20.20;1.00;;;;;;5006209;28;25093;-74
2022/05/09 08:53:44;;;;;;;13.93;5.57;;;19.90;1.00;;;;;;5006933;28;25056;-71
2022/05/09 08:56:17;;;;;;;14.15;5.30;;;19.40;1.00;;;;;;5007832;28;25144;-72
2022/05/09 08:58:49;;;;;;;15.50;4.93;;;19.30;1.00;;;;;;5007232;28;25065;-72
2022/05/09 09:01:31;;;;;;;14.32;4.95;;;19.90;1.00;;;;;;5007401;28;25138;-72
2022/05/09 09:04:04;;;;;;;9.52;4.10;;;20.00;1.00;;;;;;5006377;28;25064;-70
2022/05/09 09:06:49;;;;;;;8.18;3.63;;;20.50;1.00;;;;;;5006351;28;25099;-72
2022/05/09 09:09:23;;;;;;;13.13;4.10;;;20.40;1.00;;;;;;5006588;28;25075;-71
2022/05/09 09:11:58;;;;;;;18.95;4.90;;;20.70;1.00;;;;;;5006702;28;25101;-70
2022/05/09 09:14:42;;;;;;;11.80;4.93;;;20.40;1.00;;;;;;5005408;28;25059;-72
2022/05/09 09:17:24;;;;;;;12.35;4.13;;;19.90;1.00;;;;;;5009024;28;25079;-71
2022/05/09 09:20:04;;;;;;;17.33;5.10;;;20.40;1.00;;;;;;5007987;28;25051;-70
2022/05/09 09:22:57;;;;;;;18.23;4.68;;;20.50;1.00;;;;;;5011346;28;25106;-72
2022/05/09 09:25:52;;;;;;;11.55;4.35;;;20.70;1.00;;;;;;5010962;28;25083;-70
2022/05/09 09:28:47;;;;;;;11.75;3.97;;;20.20;1.00;;;;;;5011658;28;25072;-70
2022/05/09 09:31:18;;;;;;;17.73;4.82;;;20.20;1.00;;;;;;5021146;28;25086;-74
2022/05/09 09:33:54;;;;;;;13.98;4.22;;;20.00;1.00;;;;;;5027463;28;25086;-71
2022/05/09 09:36:23;;;;;;;12.55;4.05;;;20.20;1.00;;;;;;5009419;28;25056;-72
2022/05/09 09:39:02;;;;;;;10.05;3.72;;;20.30;1.00;;;;;;5009623;28;25129;-70
2022/05/09 09:41:33;;;;;;;7.82;3.75;;;20.00;1.00;;;;;;5009593;28;25131;-72
2022/05/09 09:44:19;;;;;;;14.13;4.00;;;20.00;1.00;;;;;;5009792;28;25058;-71
2022/05/09 09:47:04;;;;;;;13.85;3.92;;;20.40;1.00;;;;;;5010368;28;25148;-72
2022/05/09 09:49:31;;;;;;;11.13;3.53;;;19.90;1.00;;;;;;5010058;28;25135;-71
2022/05/09 09:51:57;;;;;;;16.92;3.55;;;20.40;1.00;;;;;;5011634;28;25060;-71
2022/05/09 09:54:28;;;;;;;10.98;3.05;;;20.40;1.00;;;;;;5012978;28;25060;-71
2022/05/09 09:56:54;;;;;;;7.78;3.05;;;21.20;1.00;;;;;;5016204;28;25124;-70
2022/05/09 09:59:24;;;;;;;8.30;3.00;;;21.10;1.00;;;;;;5015058;28;25430;-73
2022/05/09 10:02:04;;;;;;;12.23;3.95;;;21.90;1.00;;;;;;5028890;28;25104;-71
2022/05/09 10:04:30;;;;;;;13.20;4.50;;;22.30;1.00;;;;;;5015643;28;25063;-72
2022/05/09 10:07:01;;;;;;;15.00;4.07;;;22.10;1.00;;;;;;5012299;28;25049;-71
2022/05/09 10:09:30;;;;;;;8.25;3.50;;;21.70;1.00;;;;;;5011208;28;25095;-70
2022/05/09 10:12:14;;;;;;;8.38;2.83;;;22.10;1.00;;;;;;5010289;28;25171;-70
2022/05/09 10:14:40;;;;;;;8.88;2.70;;;22.80;1.00;;;;;;5009223;28;25080;-72
2022/05/09 10:17:25;;;;;;;14.05;2.67;;;23.10;1.00;;;;;;5009109;28;25063;-73
2022/05/09 10:19:53;;;;;;;5.78;3.08;;;23.40;1.00;;;;;;5009670;28;25079;-71
2022/05/09 10:25:20;;;;;;;7.45;3.13;;;23.60;1.00;;;;;;5010449;28;25079;-70
2022/05/09 10:27:59;;;;;;;9.55;2.90;;;22.90;1.00;;;;;;5007654;28;25068;-70
2022/05/09 10:30:33;;;;;;;5.60;2.10;;;23.00;1.00;;;;;;5009156;28;25092;-72
2022/05/09 10:33:08;;;;;;;10.13;2.20;;;23.00;1.00;;;;;;5009578;28;25145;-71
2022/05/09 10:35:35;;;;;;;8.15;2.60;;;23.00;1.00;;;;;;5009775;28;25055;-70
2022/05/09 10:38:16;;;;;;;7.35;2.95;;;23.40;1.00;;;;;;5009666;28;25153;-72
2022/05/09 10:40:59;;;;;;;9.13;2.65;;;23.20;1.00;;;;;;5009367;28;25120;-70
2022/05/09 10:43:28;;;;;;;10.18;3.15;;;22.50;1.00;;;;;;5009309;28;25066;-71
2022/05/09 10:45:53;;;;;;;6.18;2.50;;;22.80;1.00;;;;;;5008545;28;25088;-70
2022/05/09 10:48:34;;;;;;;6.18;2.08;;;23.00;1.00;;;;;;5008800;28;25095;-68
2022/05/09 10:51:20;;;;;;;10.25;2.40;;;22.70;1.00;;;;;;5006925;28;25067;-73
2022/05/09 10:53:53;;;;;;;3.97;2.03;;;23.20;1.00;;;;;;5019053;28;25110;-72
2022/05/09 10:56:41;;;;;;;6.60;2.28;;;22.90;1.00;;;;;;5003519;28;25147;-71
2022/05/09 10:59:11;;;;;;;8.38;2.33;;;23.00;1.00;;;;;;5002588;28;25084;-70
2022/05/09 11:01:52;;;;;;;6.60;2.30;;;23.10;1.00;;;;;;5006332;28;25070;-72
2022/05/09 11:04:18;;;;;;;5.03;1.63;;;23.40;1.00;;;;;;5006059;28;25125;-72
2022/05/09 11:07:16;;;;;;;6.60;1.88;;;23.40;1.00;;;;;;5010282;28;25085;-72
2022/05/09 11:10:09;;;;;;;8.35;2.10;;;22.90;1.00;;;;;;5004315;28;25067;-70
2022/05/09 11:13:01;;;;;;;6.35;1.95;;;22.50;1.00;;;;;;5013986;28;25118;-70
2022/05/09 11:15:39;;;;;;;6.38;2.08;;;23.00;1.00;;;;;;5027845;28;25066;-73
2022/05/09 11:18:26;;;;;;;5.85;1.75;;;23.50;1.00;;;;;;5030772;28;25053;-72
2022/05/09 11:20:58;;;;;;;7.13;1.92;;;24.10;1.00;;;;;;5028566;28;25083;-71
2022/05/09 11:23:53;;;;;;;6.93;2.33;;;23.50;1.00;;;;;;5028829;28;25108;-72
2022/05/09 11:26:31;;;;;;;6.57;1.92;;;23.70;1.00;;;;;;5026737;28;25074;-73
2022/05/09 11:29:10;;;;;;;6.60;1.92;;;24.40;1.00;;;;;;5031161;28;25067;-73
2022/05/09 11:31:58;;;;;;;5.32;1.52;;;25.10;1.00;;;;;;5033535;28;25058;-71
2022/05/09 11:34:56;;;;;;;6.13;2.28;;;25.10;1.00;;;;;;5015308;28;25047;-71
2022/05/09 11:37:38;;;;;;;4.50;1.45;;;24.70;1.00;;;;;;5010035;28;25131;-73
2022/05/09 11:40:21;;;;;;;3.55;1.88;;;24.80;1.00;;;;;;5007200;28;25073;-72
2022/05/09 11:46:00;;;;;;;8.45;2.63;;;25.70;1.00;;;;;;5000632;28;25080;-70
2022/05/09 11:48:25;;;;;;;6.97;2.15;;;25.90;1.00;;;;;;5001615;28;25169;-71
2022/05/09 11:51:01;;;;;;;5.55;1.92;;;25.80;1.00;;;;;;5003746;28;25053;-71
2022/05/09 11:53:31;;;;;;;6.47;2.25;;;25.60;1.00;;;;;;5005675;28;25054;-70
2022/05/09 11:55:57;;;;;;;7.18;2.33;;;25.30;1.00;;;;;;5009095;28;25071;-72
2022/05/09 11:58:25;;;;;;;2.53;1.75;;;25.40;1.00;;;;;;5010694;28;25108;-70
2022/05/09 12:00:52;;;;;;;8.50;2.20;;;24.60;1.00;;;;;;5010779;28;25057;-69
2022/05/09 12:03:57;;;;;;;5.60;1.80;;;25.20;1.00;;;;;;5006896;28;25069;-70
2022/05/09 12:06:33;;;;;;;6.78;2.60;;;26.10;1.00;;;;;;5006102;28;25093;-69
2022/05/09 12:09:01;;;;;;;8.32;2.40;;;25.80;1.00;;;;;;5007694;28;25106;-70
2022/05/09 12:11:41;;;;;;;8.90;3.15;;;25.70;1.00;;;;;;5006151;28;25089;-71
2022/05/09 12:14:07;;;;;;;6.38;2.35;;;25.40;1.00;;;;;;5006514;28;25090;-70
2022/05/09 12:16:35;;;;;;;6.65;2.60;;;25.50;1.00;;;;;;5005385;28;25103;-72
2022/05/09 12:19:13;;;;;;;8.45;2.58;;;25.50;1.00;;;;;;5006797;28;25063;-69
2022/05/09 12:21:41;;;;;;;7.28;2.50;;;25.10;1.00;;;;;;5021539;28;25062;-70
2022/05/09 12:24:18;;;;;;;5.00;2.67;;;25.70;1.00;;;;;;5006194;28;25102;-70
2022/05/09 12:26:46;;;;;;;6.85;2.45;;;25.80;1.00;;;;;;5005922;28;25135;-71
2022/05/09 12:29:12;;;;;;;11.80;3.17;;;25.90;1.00;;;;;;5006278;28;25135;-69
2022/05/09 12:31:47;;;;;;;6.03;2.65;;;26.00;1.00;;;;;;5007221;28;25067;-69
2022/05/09 12:34:21;;;;;;;10.15;2.95;;;25.50;1.00;;;;;;5007765;28;25060;-69
2022/05/09 12:36:47;;;;;;;5.95;2.80;;;25.40;1.00;;;;;;5004917;28;25089;-70
2022/05/09 12:39:17;;;;;;;7.70;3.00;;;25.20;1.00;;;;;;5010071;28;25054;-73
2022/05/09 12:41:49;;;;;;;9.27;3.58;;;25.30;1.00;;;;;;5025866;28;25064;-73
2022/05/09 12:44:33;;;;;;;7.82;2.63;;;24.90;1.00;;;;;;5034442;28;25104;-74
2022/05/09 12:47:09;;;;;;;10.45;3.13;;;25.10;1.00;;;;;;5020202;28;25056;-71
2022/05/09 12:49:48;;;;;;;12.20;4.95;;;25.30;1.00;;;;;;5012552;28;25114;-70
2022/05/09 12:52:21;;;;;;;6.03;3.00;;;25.50;1.00;;;;;;5012549;28;25075;-70
2022/05/09 12:57:38;;;;;;;6.47;3.50;;;24.60;1.00;;;;;;5011341;28;25169;-70
2022/05/09 13:00:13;;;;;;;8.15;3.72;;;24.40;1.00;;;;;;5010007;28;25084;-71
2022/05/09 13:02:38;;;;;;;12.40;3.92;;;24.40;1.00;;;;;;5009118;28;25061;-71
2022/05/09 13:05:04;;;;;;;5.50;3.40;;;24.50;1.00;;;;;;5010211;28;25062;-71
2022/05/09 13:07:30;;;;;;;7.13;3.95;;;24.60;1.00;;;;;;5010300;28;25097;-70
2022/05/09 13:09:57;;;;;;;10.02;4.07;;;24.80;1.00;;;;;;5007852;28;25088;-70
2022/05/09 13:12:33;;;;;;;6.97;3.60;;;24.70;1.00;;;;;;5009812;28;25066;-72
2022/05/09 13:15:01;;;;;;;7.15;3.33;;;24.30;1.00;;;;;;5009801;28;25090;-70
2022/05/09 13:17:47;;;;;;;9.45;3.40;;;24.00;1.00;;;;;;5009821;28;25068;-70
2022/05/09 13:20:16;;;;;;;8.05;3.70;;;24.20;1.00;;;;;;5010140;28;25077;-70
2022/05/09 13:22:48;;;;;;;8.82;4.13;;;24.00;1.00;;;;;;5009403;28;25059;-71